sensor_id;sensor_type;location;lat;lon;timestamp;P1;durP1;ratioP1;P2;durP2;ratioP2
86193;SDS011;76841;51.366;7.480;2024-02-28T00:00:33;38.93;;;4.17;;
86193;SDS011;76841;51.366;7.480;2024-02-28T00:02:58;6.70;;;1.60;;
86193;SDS011;76841;51.366;7.480;2024-02-28T00:05:23;6.60;;;1.80;;
86193;SDS011;76841;51.366;7.480;2024-02-28T00:07:49;25.13;;;4.50;;
86193;SDS011;76841;51.366;7.480;2024-02-28T00:10:14;8.97;;;2.67;;
86193;SDS011;76841;51.366;7.480;2024-02-28T00:12:39;11.03;;;3.37;;
86193;SDS011;76841;51.366;7.480;2024-02-28T00:15:05;8.60;;;2.73;;
86193;SDS011;76841;51.366;7.480;2024-02-28T00:17:35;8.90;;;2.93;;
86193;SDS011;76841;51.366;7.480;2024-02-28T00:20:00;9.43;;;3.33;;
86193;SDS011;76841;51.366;7.480;2024-02-28T00:22:25;20.33;;;6.27;;
86193;SDS011;76841;51.366;7.480;2024-02-28T00:24:51;20.73;;;3.33;;
86193;SDS011;76841;51.366;7.480;2024-02-28T00:27:16;10.17;;;4.27;;
86193;SDS011;76841;51.366;7.480;2024-02-28T00:29:41;15.83;;;3.90;;
86193;SDS011;76841;51.366;7.480;2024-02-28T00:32:06;53.70;;;3.80;;
86193;SDS011;76841;51.366;7.480;2024-02-28T00:34:32;22.03;;;3.17;;
86193;SDS011;76841;51.366;7.480;2024-02-28T00:36:57;11.60;;;4.63;;
86193;SDS011;76841;51.366;7.480;2024-02-28T00:39:22;13.20;;;6.07;;
86193;SDS011;76841;51.366;7.480;2024-02-28T00:41:48;21.87;;;3.87;;
86193;SDS011;76841;51.366;7.480;2024-02-28T00:44:13;17.37;;;4.80;;
86193;SDS011;76841;51.366;7.480;2024-02-28T00:46:39;7.93;;;2.60;;
86193;SDS011;76841;51.366;7.480;2024-02-28T00:49:04;12.70;;;2.80;;
86193;SDS011;76841;51.366;7.480;2024-02-28T00:51:29;20.27;;;5.77;;
86193;SDS011;76841;51.366;7.480;2024-02-28T00:53:54;6.90;;;2.33;;
86193;SDS011;76841;51.366;7.480;2024-02-28T00:56:20;10.43;;;4.10;;
86193;SDS011;76841;51.366;7.480;2024-02-28T00:58:45;10.17;;;2.90;;
86193;SDS011;76841;51.366;7.480;2024-02-28T01:01:11;19.23;;;3.80;;
86193;SDS011;76841;51.366;7.480;2024-02-28T01:03:36;15.30;;;3.00;;
86193;SDS011;76841;51.366;7.480;2024-02-28T01:06:02;12.47;;;3.40;;
86193;SDS011;76841;51.366;7.480;2024-02-28T01:08:29;14.43;;;4.83;;
86193;SDS011;76841;51.366;7.480;2024-02-28T01:10:54;12.67;;;4.27;;
86193;SDS011;76841;51.366;7.480;2024-02-28T01:13:19;14.03;;;4.97;;
86193;SDS011;76841;51.366;7.480;2024-02-28T01:15:45;15.37;;;5.47;;
86193;SDS011;76841;51.366;7.480;2024-02-28T01:18:10;17.50;;;4.60;;
86193;SDS011;76841;51.366;7.480;2024-02-28T01:20:35;7.37;;;2.87;;
86193;SDS011;76841;51.366;7.480;2024-02-28T01:23:01;13.40;;;3.90;;
86193;SDS011;76841;51.366;7.480;2024-02-28T01:25:26;20.73;;;6.73;;
86193;SDS011;76841;51.366;7.480;2024-02-28T01:27:51;9.30;;;2.40;;
86193;SDS011;76841;51.366;7.480;2024-02-28T01:30:16;9.67;;;3.23;;
86193;SDS011;76841;51.366;7.480;2024-02-28T01:32:42;9.70;;;3.00;;
86193;SDS011;76841;51.366;7.480;2024-02-28T01:35:08;18.70;;;4.30;;
86193;SDS011;76841;51.366;7.480;2024-02-28T01:37:33;8.73;;;2.90;;
86193;SDS011;76841;51.366;7.480;2024-02-28T01:39:59;14.03;;;2.93;;
86193;SDS011;76841;51.366;7.480;2024-02-28T01:42:24;7.27;;;2.97;;
86193;SDS011;76841;51.366;7.480;2024-02-28T01:44:49;18.03;;;4.17;;
86193;SDS011;76841;51.366;7.480;2024-02-28T01:47:15;15.30;;;4.10;;
86193;SDS011;76841;51.366;7.480;2024-02-28T01:49:41;44.43;;;4.80;;
86193;SDS011;76841;51.366;7.480;2024-02-28T01:52:07;9.30;;;2.60;;
86193;SDS011;76841;51.366;7.480;2024-02-28T01:54:34;5.93;;;1.50;;
86193;SDS011;76841;51.366;7.480;2024-02-28T01:57:00;11.90;;;3.20;;
86193;SDS011;76841;51.366;7.480;2024-02-28T01:59:26;9.83;;;2.40;;
86193;SDS011;76841;51.366;7.480;2024-02-28T02:01:51;8.30;;;2.83;;
86193;SDS011;76841;51.366;7.480;2024-02-28T02:04:16;10.30;;;3.43;;
86193;SDS011;76841;51.366;7.480;2024-02-28T02:06:42;13.30;;;4.43;;
86193;SDS011;76841;51.366;7.480;2024-02-28T02:09:10;12.17;;;2.83;;
86193;SDS011;76841;51.366;7.480;2024-02-28T02:11:35;7.50;;;2.70;;
86193;SDS011;76841;51.366;7.480;2024-02-28T02:14:00;7.90;;;2.47;;
86193;SDS011;76841;51.366;7.480;2024-02-28T02:16:26;10.60;;;3.30;;
86193;SDS011;76841;51.366;7.480;2024-02-28T02:18:51;9.37;;;3.57;;
86193;SDS011;76841;51.366;7.480;2024-02-28T02:21:17;16.60;;;2.63;;
86193;SDS011;76841;51.366;7.480;2024-02-28T02:23:45;9.50;;;1.90;;
86193;SDS011;76841;51.366;7.480;2024-02-28T02:26:10;21.63;;;5.07;;
86193;SDS011;76841;51.366;7.480;2024-02-28T02:28:35;13.83;;;3.23;;
86193;SDS011;76841;51.366;7.480;2024-02-28T02:31:00;11.40;;;3.57;;
86193;SDS011;76841;51.366;7.480;2024-02-28T02:33:26;12.10;;;5.33;;
86193;SDS011;76841;51.366;7.480;2024-02-28T02:35:54;34.83;;;5.13;;
86193;SDS011;76841;51.366;7.480;2024-02-28T02:38:19;7.40;;;2.50;;
86193;SDS011;76841;51.366;7.480;2024-02-28T02:40:48;15.60;;;4.87;;
86193;SDS011;76841;51.366;7.480;2024-02-28T02:43:17;9.10;;;2.93;;
86193;SDS011;76841;51.366;7.480;2024-02-28T02:45:43;38.43;;;6.30;;
86193;SDS011;76841;51.366;7.480;2024-02-28T02:48:08;11.50;;;2.97;;
86193;SDS011;76841;51.366;7.480;2024-02-28T02:50:34;21.67;;;2.73;;
86193;SDS011;76841;51.366;7.480;2024-02-28T02:52:59;9.30;;;3.30;;
86193;SDS011;76841;51.366;7.480;2024-02-28T02:55:24;24.23;;;3.50;;
86193;SDS011;76841;51.366;7.480;2024-02-28T02:57:50;14.20;;;3.50;;
86193;SDS011;76841;51.366;7.480;2024-02-28T03:00:15;9.67;;;2.47;;
86193;SDS011;76841;51.366;7.480;2024-02-28T03:02:40;6.90;;;2.33;;
86193;SDS011;76841;51.366;7.480;2024-02-28T03:05:06;7.60;;;2.73;;
86193;SDS011;76841;51.366;7.480;2024-02-28T03:07:32;10.80;;;2.70;;
86193;SDS011;76841;51.366;7.480;2024-02-28T03:09:57;15.10;;;6.63;;
86193;SDS011;76841;51.366;7.480;2024-02-28T03:12:23;10.90;;;2.37;;
86193;SDS011;76841;51.366;7.480;2024-02-28T03:14:48;7.20;;;2.07;;
86193;SDS011;76841;51.366;7.480;2024-02-28T03:17:13;10.80;;;3.37;;
86193;SDS011;76841;51.366;7.480;2024-02-28T03:19:40;13.37;;;5.17;;
86193;SDS011;76841;51.366;7.480;2024-02-28T03:22:06;13.90;;;4.37;;
86193;SDS011;76841;51.366;7.480;2024-02-28T03:24:31;15.60;;;3.93;;
86193;SDS011;76841;51.366;7.480;2024-02-28T03:26:57;7.60;;;3.10;;
86193;SDS011;76841;51.366;7.480;2024-02-28T03:29:22;24.53;;;4.50;;
86193;SDS011;76841;51.366;7.480;2024-02-28T03:31:47;13.53;;;4.60;;
86193;SDS011;76841;51.366;7.480;2024-02-28T03:34:13;15.00;;;2.77;;
86193;SDS011;76841;51.366;7.480;2024-02-28T03:36:38;10.33;;;3.50;;
86193;SDS011;76841;51.366;7.480;2024-02-28T03:39:03;13.33;;;3.63;;
86193;SDS011;76841;51.366;7.480;2024-02-28T03:41:29;14.00;;;3.23;;
86193;SDS011;76841;51.366;7.480;2024-02-28T03:43:54;15.17;;;5.17;;
86193;SDS011;76841;51.366;7.480;2024-02-28T03:46:19;12.53;;;4.57;;
86193;SDS011;76841;51.366;7.480;2024-02-28T03:48:46;12.63;;;6.53;;
86193;SDS011;76841;51.366;7.480;2024-02-28T03:51:11;13.30;;;5.53;;
86193;SDS011;76841;51.366;7.480;2024-02-28T03:53:36;8.47;;;2.67;;
86193;SDS011;76841;51.366;7.480;2024-02-28T03:56:05;10.13;;;3.00;;
86193;SDS011;76841;51.366;7.480;2024-02-28T03:58:30;13.73;;;2.77;;
86193;SDS011;76841;51.366;7.480;2024-02-28T04:00:56;12.40;;;4.50;;
86193;SDS011;76841;51.366;7.480;2024-02-28T04:03:21;14.13;;;4.20;;
86193;SDS011;76841;51.366;7.480;2024-02-28T04:05:46;8.13;;;2.53;;
86193;SDS011;76841;51.366;7.480;2024-02-28T04:08:11;6.43;;;2.23;;
86193;SDS011;76841;51.366;7.480;2024-02-28T04:10:37;8.80;;;2.83;;
86193;SDS011;76841;51.366;7.480;2024-02-28T04:13:02;10.23;;;4.30;;
86193;SDS011;76841;51.366;7.480;2024-02-28T04:15:28;14.80;;;3.13;;
86193;SDS011;76841;51.366;7.480;2024-02-28T04:17:55;10.07;;;3.47;;
86193;SDS011;76841;51.366;7.480;2024-02-28T04:20:20;11.03;;;2.30;;
86193;SDS011;76841;51.366;7.480;2024-02-28T04:22:45;14.10;;;3.93;;
86193;SDS011;76841;51.366;7.480;2024-02-28T04:25:10;6.50;;;1.33;;
86193;SDS011;76841;51.366;7.480;2024-02-28T04:27:36;8.57;;;3.10;;
86193;SDS011;76841;51.366;7.480;2024-02-28T04:30:02;16.97;;;5.20;;
86193;SDS011;76841;51.366;7.480;2024-02-28T04:32:28;8.73;;;3.43;;
86193;SDS011;76841;51.366;7.480;2024-02-28T04:34:53;14.87;;;3.73;;
86193;SDS011;76841;51.366;7.480;2024-02-28T04:37:21;9.90;;;4.20;;
86193;SDS011;76841;51.366;7.480;2024-02-28T04:39:47;13.40;;;5.07;;
86193;SDS011;76841;51.366;7.480;2024-02-28T04:42:12;9.20;;;1.90;;
86193;SDS011;76841;51.366;7.480;2024-02-28T04:44:38;10.17;;;2.70;;
86193;SDS011;76841;51.366;7.480;2024-02-28T04:47:03;19.20;;;4.77;;
86193;SDS011;76841;51.366;7.480;2024-02-28T04:49:29;12.07;;;2.57;;
86193;SDS011;76841;51.366;7.480;2024-02-28T04:51:54;21.87;;;4.40;;
86193;SDS011;76841;51.366;7.480;2024-02-28T04:54:20;9.20;;;3.33;;
86193;SDS011;76841;51.366;7.480;2024-02-28T04:56:45;7.63;;;1.53;;
86193;SDS011;76841;51.366;7.480;2024-02-28T04:59:11;10.23;;;2.77;;
86193;SDS011;76841;51.366;7.480;2024-02-28T05:01:37;5.97;;;1.50;;
86193;SDS011;76841;51.366;7.480;2024-02-28T05:04:05;10.60;;;2.40;;
86193;SDS011;76841;51.366;7.480;2024-02-28T05:06:31;13.60;;;4.27;;
86193;SDS011;76841;51.366;7.480;2024-02-28T05:08:56;7.93;;;2.73;;
86193;SDS011;76841;51.366;7.480;2024-02-28T05:11:21;9.73;;;2.97;;
86193;SDS011;76841;51.366;7.480;2024-02-28T05:13:47;5.60;;;1.00;;
86193;SDS011;76841;51.366;7.480;2024-02-28T05:16:15;19.77;;;3.90;;
86193;SDS011;76841;51.366;7.480;2024-02-28T05:18:44;10.37;;;4.43;;
86193;SDS011;76841;51.366;7.480;2024-02-28T05:21:10;9.80;;;4.67;;
86193;SDS011;76841;51.366;7.480;2024-02-28T05:23:39;10.90;;;4.60;;
86193;SDS011;76841;51.366;7.480;2024-02-28T05:26:05;8.43;;;2.47;;
86193;SDS011;76841;51.366;7.480;2024-02-28T05:28:31;13.43;;;3.63;;
86193;SDS011;76841;51.366;7.480;2024-02-28T05:30:59;9.83;;;2.73;;
86193;SDS011;76841;51.366;7.480;2024-02-28T05:33:27;21.33;;;3.30;;
86193;SDS011;76841;51.366;7.480;2024-02-28T05:35:53;17.47;;;5.87;;
86193;SDS011;76841;51.366;7.480;2024-02-28T05:38:18;8.70;;;3.50;;
86193;SDS011;76841;51.366;7.480;2024-02-28T05:40:46;28.33;;;4.37;;
86193;SDS011;76841;51.366;7.480;2024-02-28T05:43:11;15.23;;;3.90;;
86193;SDS011;76841;51.366;7.480;2024-02-28T05:45:36;17.47;;;4.67;;
86193;SDS011;76841;51.366;7.480;2024-02-28T05:48:02;7.17;;;3.00;;
86193;SDS011;76841;51.366;7.480;2024-02-28T05:50:27;14.00;;;3.30;;
86193;SDS011;76841;51.366;7.480;2024-02-28T05:52:54;21.30;;;5.10;;
86193;SDS011;76841;51.366;7.480;2024-02-28T05:55:20;11.20;;;5.43;;
86193;SDS011;76841;51.366;7.480;2024-02-28T05:57:47;11.43;;;4.33;;
86193;SDS011;76841;51.366;7.480;2024-02-28T06:00:13;11.73;;;4.83;;
86193;SDS011;76841;51.366;7.480;2024-02-28T06:02:39;38.80;;;3.90;;
86193;SDS011;76841;51.366;7.480;2024-02-28T06:05:04;13.67;;;5.10;;
86193;SDS011;76841;51.366;7.480;2024-02-28T06:07:30;25.90;;;4.60;;
86193;SDS011;76841;51.366;7.480;2024-02-28T06:09:55;22.20;;;3.90;;
86193;SDS011;76841;51.366;7.480;2024-02-28T06:12:21;5.70;;;1.43;;
86193;SDS011;76841;51.366;7.480;2024-02-28T06:14:46;12.30;;;3.63;;
86193;SDS011;76841;51.366;7.480;2024-02-28T06:17:12;8.23;;;2.20;;
86193;SDS011;76841;51.366;7.480;2024-02-28T06:19:38;16.20;;;2.70;;
86193;SDS011;76841;51.366;7.480;2024-02-28T06:22:03;18.63;;;5.47;;
86193;SDS011;76841;51.366;7.480;2024-02-28T06:24:28;8.30;;;3.20;;
86193;SDS011;76841;51.366;7.480;2024-02-28T06:26:53;8.03;;;2.30;;
86193;SDS011;76841;51.366;7.480;2024-02-28T06:29:19;15.70;;;7.97;;
86193;SDS011;76841;51.366;7.480;2024-02-28T06:31:53;7.57;;;2.40;;
86193;SDS011;76841;51.366;7.480;2024-02-28T06:34:19;12.20;;;2.50;;
86193;SDS011;76841;51.366;7.480;2024-02-28T06:36:44;8.83;;;3.43;;
86193;SDS011;76841;51.366;7.480;2024-02-28T06:39:10;10.73;;;3.77;;
86193;SDS011;76841;51.366;7.480;2024-02-28T06:41:35;13.10;;;5.60;;
86193;SDS011;76841;51.366;7.480;2024-02-28T06:44:03;11.63;;;4.10;;
86193;SDS011;76841;51.366;7.480;2024-02-28T06:46:28;32.83;;;4.60;;
86193;SDS011;76841;51.366;7.480;2024-02-28T06:48:54;12.43;;;3.43;;
86193;SDS011;76841;51.366;7.480;2024-02-28T06:51:19;9.20;;;2.50;;
86193;SDS011;76841;51.366;7.480;2024-02-28T06:53:44;7.20;;;3.07;;
86193;SDS011;76841;51.366;7.480;2024-02-28T06:56:09;15.10;;;5.80;;
86193;SDS011;76841;51.366;7.480;2024-02-28T06:58:35;13.20;;;5.03;;
86193;SDS011;76841;51.366;7.480;2024-02-28T07:01:00;18.83;;;3.23;;
86193;SDS011;76841;51.366;7.480;2024-02-28T07:03:26;7.20;;;2.40;;
86193;SDS011;76841;51.366;7.480;2024-02-28T07:05:51;13.23;;;5.70;;
86193;SDS011;76841;51.366;7.480;2024-02-28T07:08:18;13.87;;;4.53;;
86193;SDS011;76841;51.366;7.480;2024-02-28T07:10:46;15.07;;;5.87;;
86193;SDS011;76841;51.366;7.480;2024-02-28T07:13:14;60.43;;;4.53;;
86193;SDS011;76841;51.366;7.480;2024-02-28T07:15:40;13.70;;;4.73;;
86193;SDS011;76841;51.366;7.480;2024-02-28T07:18:06;10.33;;;3.80;;
86193;SDS011;76841;51.366;7.480;2024-02-28T07:20:31;11.40;;;3.70;;
86193;SDS011;76841;51.366;7.480;2024-02-28T07:22:57;15.90;;;7.27;;
86193;SDS011;76841;51.366;7.480;2024-02-28T07:25:22;23.23;;;4.93;;
86193;SDS011;76841;51.366;7.480;2024-02-28T07:27:50;20.33;;;6.10;;
86193;SDS011;76841;51.366;7.480;2024-02-28T07:30:15;12.93;;;3.90;;
86193;SDS011;76841;51.366;7.480;2024-02-28T07:32:41;18.07;;;4.97;;
86193;SDS011;76841;51.366;7.480;2024-02-28T07:35:06;15.30;;;4.57;;
86193;SDS011;76841;51.366;7.480;2024-02-28T07:37:32;10.60;;;6.23;;
86193;SDS011;76841;51.366;7.480;2024-02-28T07:39:57;24.80;;;5.50;;
86193;SDS011;76841;51.366;7.480;2024-02-28T07:42:22;18.27;;;7.77;;
86193;SDS011;76841;51.366;7.480;2024-02-28T07:44:48;44.77;;;5.40;;
86193;SDS011;76841;51.366;7.480;2024-02-28T07:47:18;8.23;;;3.57;;
86193;SDS011;76841;51.366;7.480;2024-02-28T07:49:43;19.53;;;7.63;;
86193;SDS011;76841;51.366;7.480;2024-02-28T07:52:08;15.03;;;6.67;;
86193;SDS011;76841;51.366;7.480;2024-02-28T07:54:34;13.40;;;5.50;;
86193;SDS011;76841;51.366;7.480;2024-02-28T07:56:59;22.63;;;6.10;;
86193;SDS011;76841;51.366;7.480;2024-02-28T07:59:24;16.33;;;4.70;;
86193;SDS011;76841;51.366;7.480;2024-02-28T08:01:49;14.47;;;7.70;;
86193;SDS011;76841;51.366;7.480;2024-02-28T08:04:14;17.23;;;7.63;;
86193;SDS011;76841;51.366;7.480;2024-02-28T08:20:03;15.13;;;5.73;;
86193;SDS011;76841;51.366;7.480;2024-02-28T08:22:30;19.57;;;6.37;;
86193;SDS011;76841;51.366;7.480;2024-02-28T08:24:55;36.47;;;8.07;;
86193;SDS011;76841;51.366;7.480;2024-02-28T08:27:21;16.10;;;6.90;;
86193;SDS011;76841;51.366;7.480;2024-02-28T08:29:48;17.60;;;5.77;;
86193;SDS011;76841;51.366;7.480;2024-02-28T08:32:13;16.77;;;6.10;;
86193;SDS011;76841;51.366;7.480;2024-02-28T08:34:38;23.47;;;7.07;;
86193;SDS011;76841;51.366;7.480;2024-02-28T08:37:04;21.50;;;7.77;;
86193;SDS011;76841;51.366;7.480;2024-02-28T08:39:29;32.23;;;8.77;;
86193;SDS011;76841;51.366;7.480;2024-02-28T08:41:54;21.23;;;7.60;;
86193;SDS011;76841;51.366;7.480;2024-02-28T08:44:19;22.60;;;10.10;;
86193;SDS011;76841;51.366;7.480;2024-02-28T08:46:48;16.27;;;8.90;;
86193;SDS011;76841;51.366;7.480;2024-02-28T08:49:14;18.10;;;7.60;;
86193;SDS011;76841;51.366;7.480;2024-02-28T08:51:40;18.17;;;7.63;;
86193;SDS011;76841;51.366;7.480;2024-02-28T08:54:05;34.70;;;8.70;;
86193;SDS011;76841;51.366;7.480;2024-02-28T08:56:31;26.10;;;7.73;;
86193;SDS011;76841;51.366;7.480;2024-02-28T08:58:56;17.83;;;8.30;;
86193;SDS011;76841;51.366;7.480;2024-02-28T09:01:21;23.10;;;9.50;;
86193;SDS011;76841;51.366;7.480;2024-02-28T09:03:46;20.27;;;9.40;;
86193;SDS011;76841;51.366;7.480;2024-02-28T09:06:12;17.50;;;6.67;;
86193;SDS011;76841;51.366;7.480;2024-02-28T09:08:37;35.07;;;12.67;;
86193;SDS011;76841;51.366;7.480;2024-02-28T09:11:02;28.77;;;8.23;;
86193;SDS011;76841;51.366;7.480;2024-02-28T09:13:30;20.57;;;8.03;;
86193;SDS011;76841;51.366;7.480;2024-02-28T09:15:55;27.03;;;6.70;;
86193;SDS011;76841;51.366;7.480;2024-02-28T09:18:20;22.30;;;8.10;;
86193;SDS011;76841;51.366;7.480;2024-02-28T09:20:45;24.80;;;7.30;;
86193;SDS011;76841;51.366;7.480;2024-02-28T09:23:11;18.70;;;7.87;;
86193;SDS011;76841;51.366;7.480;2024-02-28T09:25:36;25.97;;;8.70;;
86193;SDS011;76841;51.366;7.480;2024-02-28T09:28:02;26.27;;;10.00;;
86193;SDS011;76841;51.366;7.480;2024-02-28T09:30:27;25.23;;;7.03;;
86193;SDS011;76841;51.366;7.480;2024-02-28T09:32:53;20.10;;;6.70;;
86193;SDS011;76841;51.366;7.480;2024-02-28T09:35:19;27.60;;;10.27;;
86193;SDS011;76841;51.366;7.480;2024-02-28T09:37:44;26.90;;;8.90;;
86193;SDS011;76841;51.366;7.480;2024-02-28T09:40:10;22.90;;;8.60;;
86193;SDS011;76841;51.366;7.480;2024-02-28T09:42:36;14.83;;;6.30;;
86193;SDS011;76841;51.366;7.480;2024-02-28T09:45:01;13.70;;;5.87;;
86193;SDS011;76841;51.366;7.480;2024-02-28T09:47:27;20.60;;;7.00;;
86193;SDS011;76841;51.366;7.480;2024-02-28T09:49:52;23.20;;;7.50;;
86193;SDS011;76841;51.366;7.480;2024-02-28T09:52:18;19.43;;;7.47;;
86193;SDS011;76841;51.366;7.480;2024-02-28T09:54:44;34.53;;;8.00;;
86193;SDS011;76841;51.366;7.480;2024-02-28T09:57:10;26.30;;;6.43;;
86193;SDS011;76841;51.366;7.480;2024-02-28T09:59:36;20.00;;;7.23;;
86193;SDS011;76841;51.366;7.480;2024-02-28T10:02:02;14.63;;;4.83;;
86193;SDS011;76841;51.366;7.480;2024-02-28T10:04:28;34.33;;;9.43;;
86193;SDS011;76841;51.366;7.480;2024-02-28T10:06:54;16.07;;;7.27;;
86193;SDS011;76841;51.366;7.480;2024-02-28T10:09:19;18.90;;;6.30;;
86193;SDS011;76841;51.366;7.480;2024-02-28T10:11:44;15.80;;;7.43;;
86193;SDS011;76841;51.366;7.480;2024-02-28T10:14:11;21.33;;;7.27;;
86193;SDS011;76841;51.366;7.480;2024-02-28T10:16:37;24.50;;;9.20;;
86193;SDS011;76841;51.366;7.480;2024-02-28T10:19:02;16.00;;;6.60;;
86193;SDS011;76841;51.366;7.480;2024-02-28T10:21:29;16.97;;;7.10;;
86193;SDS011;76841;51.366;7.480;2024-02-28T10:23:57;12.40;;;5.33;;
86193;SDS011;76841;51.366;7.480;2024-02-28T10:26:23;22.47;;;8.63;;
86193;SDS011;76841;51.366;7.480;2024-02-28T10:28:48;18.80;;;6.30;;
86193;SDS011;76841;51.366;7.480;2024-02-28T10:31:14;23.40;;;8.13;;
86193;SDS011;76841;51.366;7.480;2024-02-28T10:33:41;11.30;;;3.70;;
86193;SDS011;76841;51.366;7.480;2024-02-28T10:36:06;18.00;;;7.17;;
86193;SDS011;76841;51.366;7.480;2024-02-28T10:38:32;15.63;;;5.27;;
86193;SDS011;76841;51.366;7.480;2024-02-28T10:41:03;27.73;;;8.57;;
86193;SDS011;76841;51.366;7.480;2024-02-28T10:43:29;25.43;;;5.17;;
86193;SDS011;76841;51.366;7.480;2024-02-28T10:45:56;18.60;;;7.93;;
86193;SDS011;76841;51.366;7.480;2024-02-28T10:48:23;17.10;;;5.93;;
86193;SDS011;76841;51.366;7.480;2024-02-28T10:50:49;19.03;;;6.13;;
86193;SDS011;76841;51.366;7.480;2024-02-28T10:53:15;19.73;;;6.70;;
86193;SDS011;76841;51.366;7.480;2024-02-28T10:55:45;19.67;;;5.70;;
86193;SDS011;76841;51.366;7.480;2024-02-28T10:58:13;15.07;;;5.10;;
86193;SDS011;76841;51.366;7.480;2024-02-28T11:00:40;26.10;;;6.30;;
86193;SDS011;76841;51.366;7.480;2024-02-28T11:03:07;17.33;;;8.03;;
86193;SDS011;76841;51.366;7.480;2024-02-28T11:05:36;19.13;;;7.23;;
86193;SDS011;76841;51.366;7.480;2024-02-28T11:08:04;26.77;;;6.60;;
86193;SDS011;76841;51.366;7.480;2024-02-28T11:10:40;12.97;;;5.93;;
86193;SDS011;76841;51.366;7.480;2024-02-28T11:13:07;16.90;;;6.53;;
86193;SDS011;76841;51.366;7.480;2024-02-28T11:15:33;19.30;;;7.10;;
86193;SDS011;76841;51.366;7.480;2024-02-28T11:18:08;18.77;;;6.00;;
86193;SDS011;76841;51.366;7.480;2024-02-28T11:20:34;19.70;;;8.57;;
86193;SDS011;76841;51.366;7.480;2024-02-28T11:23:00;15.70;;;6.47;;
86193;SDS011;76841;51.366;7.480;2024-02-28T11:25:25;14.13;;;5.87;;
86193;SDS011;76841;51.366;7.480;2024-02-28T11:27:50;23.50;;;6.30;;
86193;SDS011;76841;51.366;7.480;2024-02-28T11:30:16;17.30;;;6.03;;
86193;SDS011;76841;51.366;7.480;2024-02-28T11:32:42;25.93;;;6.97;;
86193;SDS011;76841;51.366;7.480;2024-02-28T11:35:07;14.23;;;4.70;;
86193;SDS011;76841;51.366;7.480;2024-02-28T11:37:33;16.77;;;7.00;;
86193;SDS011;76841;51.366;7.480;2024-02-28T11:39:58;19.93;;;4.40;;
86193;SDS011;76841;51.366;7.480;2024-02-28T11:42:24;16.93;;;5.83;;
86193;SDS011;76841;51.366;7.480;2024-02-28T11:44:55;19.77;;;6.87;;
86193;SDS011;76841;51.366;7.480;2024-02-28T11:47:22;12.70;;;4.77;;
86193;SDS011;76841;51.366;7.480;2024-02-28T11:49:48;20.53;;;7.57;;
86193;SDS011;76841;51.366;7.480;2024-02-28T11:52:14;9.43;;;4.37;;
86193;SDS011;76841;51.366;7.480;2024-02-28T11:54:39;19.60;;;6.13;;
86193;SDS011;76841;51.366;7.480;2024-02-28T11:57:04;26.07;;;6.40;;
86193;SDS011;76841;51.366;7.480;2024-02-28T11:59:29;12.03;;;4.93;;
86193;SDS011;76841;51.366;7.480;2024-02-28T12:01:55;15.37;;;7.30;;
86193;SDS011;76841;51.366;7.480;2024-02-28T12:04:20;21.80;;;7.20;;
86193;SDS011;76841;51.366;7.480;2024-02-28T12:06:48;25.53;;;5.50;;
86193;SDS011;76841;51.366;7.480;2024-02-28T12:09:13;20.40;;;6.13;;
86193;SDS011;76841;51.366;7.480;2024-02-28T12:11:39;20.03;;;8.07;;
86193;SDS011;76841;51.366;7.480;2024-02-28T12:14:06;19.27;;;6.37;;
86193;SDS011;76841;51.366;7.480;2024-02-28T12:16:34;23.77;;;7.77;;
86193;SDS011;76841;51.366;7.480;2024-02-28T12:19:02;22.80;;;7.70;;
86193;SDS011;76841;51.366;7.480;2024-02-28T12:21:28;18.03;;;5.70;;
86193;SDS011;76841;51.366;7.480;2024-02-28T12:23:53;14.40;;;5.40;;
86193;SDS011;76841;51.366;7.480;2024-02-28T12:26:21;16.10;;;7.37;;
86193;SDS011;76841;51.366;7.480;2024-02-28T12:28:47;25.47;;;5.17;;
86193;SDS011;76841;51.366;7.480;2024-02-28T12:31:12;13.10;;;4.93;;
86193;SDS011;76841;51.366;7.480;2024-02-28T12:33:38;26.40;;;7.50;;
86193;SDS011;76841;51.366;7.480;2024-02-28T12:36:04;20.03;;;6.83;;
86193;SDS011;76841;51.366;7.480;2024-02-28T12:38:30;12.23;;;5.70;;
86193;SDS011;76841;51.366;7.480;2024-02-28T12:40:56;18.23;;;7.10;;
86193;SDS011;76841;51.366;7.480;2024-02-28T12:43:21;23.30;;;7.77;;
86193;SDS011;76841;51.366;7.480;2024-02-28T12:45:47;12.90;;;4.97;;
86193;SDS011;76841;51.366;7.480;2024-02-28T12:48:12;20.33;;;5.73;;
86193;SDS011;76841;51.366;7.480;2024-02-28T12:50:37;30.87;;;6.10;;
86193;SDS011;76841;51.366;7.480;2024-02-28T12:53:02;17.50;;;7.67;;
86193;SDS011;76841;51.366;7.480;2024-02-28T12:55:28;13.57;;;4.63;;
86193;SDS011;76841;51.366;7.480;2024-02-28T12:57:53;26.50;;;6.03;;
86193;SDS011;76841;51.366;7.480;2024-02-28T13:00:19;16.10;;;5.07;;
86193;SDS011;76841;51.366;7.480;2024-02-28T13:02:44;41.27;;;9.63;;
86193;SDS011;76841;51.366;7.480;2024-02-28T13:05:11;17.03;;;7.10;;
86193;SDS011;76841;51.366;7.480;2024-02-28T13:07:37;13.47;;;5.57;;
86193;SDS011;76841;51.366;7.480;2024-02-28T13:10:03;15.97;;;5.83;;
86193;SDS011;76841;51.366;7.480;2024-02-28T13:12:29;18.60;;;5.57;;
86193;SDS011;76841;51.366;7.480;2024-02-28T13:14:55;17.20;;;4.83;;
86193;SDS011;76841;51.366;7.480;2024-02-28T13:17:20;17.83;;;5.80;;
86193;SDS011;76841;51.366;7.480;2024-02-28T13:19:46;11.53;;;3.90;;
86193;SDS011;76841;51.366;7.480;2024-02-28T13:22:11;14.83;;;7.03;;
86193;SDS011;76841;51.366;7.480;2024-02-28T13:24:36;15.90;;;4.50;;
86193;SDS011;76841;51.366;7.480;2024-02-28T13:27:01;13.67;;;4.47;;
86193;SDS011;76841;51.366;7.480;2024-02-28T13:29:27;14.47;;;6.20;;
86193;SDS011;76841;51.366;7.480;2024-02-28T13:31:52;12.50;;;4.20;;
86193;SDS011;76841;51.366;7.480;2024-02-28T13:34:18;12.20;;;4.23;;
86193;SDS011;76841;51.366;7.480;2024-02-28T13:36:43;27.70;;;4.90;;
86193;SDS011;76841;51.366;7.480;2024-02-28T13:39:09;11.20;;;4.20;;
86193;SDS011;76841;51.366;7.480;2024-02-28T13:41:36;26.27;;;8.03;;
86193;SDS011;76841;51.366;7.480;2024-02-28T13:44:01;22.93;;;4.80;;
86193;SDS011;76841;51.366;7.480;2024-02-28T13:46:27;10.33;;;4.20;;
86193;SDS011;76841;51.366;7.480;2024-02-28T13:48:52;13.43;;;4.87;;
86193;SDS011;76841;51.366;7.480;2024-02-28T13:51:17;14.47;;;5.13;;
86193;SDS011;76841;51.366;7.480;2024-02-28T13:53:42;11.23;;;3.80;;
86193;SDS011;76841;51.366;7.480;2024-02-28T13:56:08;17.50;;;5.93;;
86193;SDS011;76841;51.366;7.480;2024-02-28T13:58:33;20.77;;;7.07;;
86193;SDS011;76841;51.366;7.480;2024-02-28T14:00:58;9.93;;;4.10;;
86193;SDS011;76841;51.366;7.480;2024-02-28T14:03:23;12.13;;;4.60;;
86193;SDS011;76841;51.366;7.480;2024-02-28T14:05:50;16.50;;;5.43;;
86193;SDS011;76841;51.366;7.480;2024-02-28T14:08:17;14.80;;;5.27;;
86193;SDS011;76841;51.366;7.480;2024-02-28T14:10:42;20.47;;;5.93;;
86193;SDS011;76841;51.366;7.480;2024-02-28T14:13:07;14.67;;;5.47;;
86193;SDS011;76841;51.366;7.480;2024-02-28T14:15:32;21.40;;;5.13;;
86193;SDS011;76841;51.366;7.480;2024-02-28T14:18:00;20.40;;;6.03;;
86193;SDS011;76841;51.366;7.480;2024-02-28T14:20:25;14.27;;;5.03;;
86193;SDS011;76841;51.366;7.480;2024-02-28T14:22:51;11.33;;;3.33;;
86193;SDS011;76841;51.366;7.480;2024-02-28T14:25:17;12.40;;;6.73;;
86193;SDS011;76841;51.366;7.480;2024-02-28T14:27:44;11.83;;;5.50;;
86193;SDS011;76841;51.366;7.480;2024-02-28T14:30:10;12.77;;;5.63;;
86193;SDS011;76841;51.366;7.480;2024-02-28T14:32:37;21.93;;;5.03;;
86193;SDS011;76841;51.366;7.480;2024-02-28T14:35:04;13.13;;;4.77;;
86193;SDS011;76841;51.366;7.480;2024-02-28T14:37:31;15.17;;;4.93;;
86193;SDS011;76841;51.366;7.480;2024-02-28T14:39:56;12.30;;;3.73;;